sensor_id;sensor_type;location;lat;lon;timestamp;P1;durP1;ratioP1;P2;durP2;ratioP2
45326;SDS011;31062;49.678;24.560;2023-08-17T00:00:29;16.92;;;11.45;;
45326;SDS011;31062;49.678;24.560;2023-08-17T00:03:14;18.38;;;11.13;;
45326;SDS011;31062;49.678;24.560;2023-08-17T00:06:00;19.80;;;10.68;;
45326;SDS011;31062;49.678;24.560;2023-08-17T00:08:45;18.95;;;10.48;;
45326;SDS011;31062;49.678;24.560;2023-08-17T00:11:31;16.27;;;10.02;;
45326;SDS011;31062;49.678;24.560;2023-08-17T00:14:17;13.65;;;9.98;;
45326;SDS011;31062;49.678;24.560;2023-08-17T00:17:02;16.83;;;10.05;;
45326;SDS011;31062;49.678;24.560;2023-08-17T00:19:48;14.13;;;10.60;;
45326;SDS011;31062;49.678;24.560;2023-08-17T00:22:34;20.98;;;10.32;;
45326;SDS011;31062;49.678;24.560;2023-08-17T00:25:20;16.75;;;9.98;;
45326;SDS011;31062;49.678;24.560;2023-08-17T00:28:06;18.25;;;9.57;;
45326;SDS011;31062;49.678;24.560;2023-08-17T00:30:52;12.65;;;8.90;;
45326;SDS011;31062;49.678;24.560;2023-08-17T00:33:37;19.67;;;8.93;;
45326;SDS011;31062;49.678;24.560;2023-08-17T00:36:25;10.48;;;9.20;;
45326;SDS011;31062;49.678;24.560;2023-08-17T00:39:11;10.40;;;9.02;;
45326;SDS011;31062;49.678;24.560;2023-08-17T00:41:56;13.65;;;10.00;;
45326;SDS011;31062;49.678;24.560;2023-08-17T00:44:41;20.60;;;10.05;;
45326;SDS011;31062;49.678;24.560;2023-08-17T00:47:27;14.70;;;9.70;;
45326;SDS011;31062;49.678;24.560;2023-08-17T00:50:14;18.83;;;9.35;;
45326;SDS011;31062;49.678;24.560;2023-08-17T00:53:00;12.20;;;9.30;;
45326;SDS011;31062;49.678;24.560;2023-08-17T00:55:47;15.15;;;8.38;;
45326;SDS011;31062;49.678;24.560;2023-08-17T00:58:33;10.25;;;8.85;;
45326;SDS011;31062;49.678;24.560;2023-08-17T01:01:19;13.25;;;9.95;;
45326;SDS011;31062;49.678;24.560;2023-08-17T01:04:05;14.02;;;9.02;;
45326;SDS011;31062;49.678;24.560;2023-08-17T01:06:50;13.70;;;9.05;;
45326;SDS011;31062;49.678;24.560;2023-08-17T01:09:37;14.55;;;9.88;;
45326;SDS011;31062;49.678;24.560;2023-08-17T01:12:30;17.42;;;8.63;;
45326;SDS011;31062;49.678;24.560;2023-08-17T01:15:18;12.73;;;8.70;;
45326;SDS011;31062;49.678;24.560;2023-08-17T01:18:21;15.55;;;10.65;;
45326;SDS011;31062;49.678;24.560;2023-08-17T01:21:10;14.43;;;10.40;;
45326;SDS011;31062;49.678;24.560;2023-08-17T01:24:03;16.33;;;9.57;;
45326;SDS011;31062;49.678;24.560;2023-08-17T01:26:48;15.55;;;9.82;;
45326;SDS011;31062;49.678;24.560;2023-08-17T01:29:34;15.30;;;10.50;;
45326;SDS011;31062;49.678;24.560;2023-08-17T01:32:24;16.17;;;11.60;;
45326;SDS011;31062;49.678;24.560;2023-08-17T01:35:21;13.20;;;10.25;;
45326;SDS011;31062;49.678;24.560;2023-08-17T01:38:14;15.07;;;8.82;;
45326;SDS011;31062;49.678;24.560;2023-08-17T01:41:04;11.18;;;8.57;;
45326;SDS011;31062;49.678;24.560;2023-08-17T01:43:53;11.55;;;8.38;;
45326;SDS011;31062;49.678;24.560;2023-08-17T01:46:40;16.80;;;8.85;;
45326;SDS011;31062;49.678;24.560;2023-08-17T01:49:26;13.43;;;9.10;;
45326;SDS011;31062;49.678;24.560;2023-08-17T01:52:12;13.30;;;8.20;;
45326;SDS011;31062;49.678;24.560;2023-08-17T01:54:58;15.38;;;8.98;;
45326;SDS011;31062;49.678;24.560;2023-08-17T01:57:43;15.35;;;8.55;;
45326;SDS011;31062;49.678;24.560;2023-08-17T02:00:29;13.38;;;8.15;;
45326;SDS011;31062;49.678;24.560;2023-08-17T02:03:14;14.23;;;7.65;;
45326;SDS011;31062;49.678;24.560;2023-08-17T02:06:00;10.77;;;7.40;;
45326;SDS011;31062;49.678;24.560;2023-08-17T02:08:46;11.70;;;8.85;;
45326;SDS011;31062;49.678;24.560;2023-08-17T02:11:32;11.77;;;8.43;;
45326;SDS011;31062;49.678;24.560;2023-08-17T02:14:17;12.32;;;7.88;;
45326;SDS011;31062;49.678;24.560;2023-08-17T02:17:03;12.90;;;9.57;;
45326;SDS011;31062;49.678;24.560;2023-08-17T02:19:50;12.88;;;8.85;;
45326;SDS011;31062;49.678;24.560;2023-08-17T02:22:36;14.38;;;9.10;;
45326;SDS011;31062;49.678;24.560;2023-08-17T02:25:22;12.07;;;8.93;;
45326;SDS011;31062;49.678;24.560;2023-08-17T02:28:09;14.65;;;10.00;;
45326;SDS011;31062;49.678;24.560;2023-08-17T02:30:57;15.70;;;9.93;;
45326;SDS011;31062;49.678;24.560;2023-08-17T02:33:45;15.38;;;9.32;;
45326;SDS011;31062;49.678;24.560;2023-08-17T02:36:31;11.20;;;8.88;;
45326;SDS011;31062;49.678;24.560;2023-08-17T02:39:18;13.52;;;10.05;;
45326;SDS011;31062;49.678;24.560;2023-08-17T02:42:04;10.77;;;9.13;;
45326;SDS011;31062;49.678;24.560;2023-08-17T02:44:49;18.50;;;9.30;;
45326;SDS011;31062;49.678;24.560;2023-08-17T02:47:35;11.98;;;9.20;;
45326;SDS011;31062;49.678;24.560;2023-08-17T02:50:20;19.80;;;9.18;;
45326;SDS011;31062;49.678;24.560;2023-08-17T02:53:05;12.20;;;8.30;;
45326;SDS011;31062;49.678;24.560;2023-08-17T02:55:51;13.30;;;10.43;;
45326;SDS011;31062;49.678;24.560;2023-08-17T02:58:36;14.10;;;8.88;;
45326;SDS011;31062;49.678;24.560;2023-08-17T03:01:24;18.00;;;10.43;;
45326;SDS011;31062;49.678;24.560;2023-08-17T03:04:10;16.83;;;10.10;;
45326;SDS011;31062;49.678;24.560;2023-08-17T03:06:55;14.88;;;9.95;;
45326;SDS011;31062;49.678;24.560;2023-08-17T03:09:40;15.45;;;9.80;;
45326;SDS011;31062;49.678;24.560;2023-08-17T03:12:26;11.82;;;8.98;;
45326;SDS011;31062;49.678;24.560;2023-08-17T03:15:11;15.57;;;9.43;;
45326;SDS011;31062;49.678;24.560;2023-08-17T03:17:57;18.52;;;9.98;;
45326;SDS011;31062;49.678;24.560;2023-08-17T03:20:44;13.23;;;9.35;;
45326;SDS011;31062;49.678;24.560;2023-08-17T03:23:30;13.23;;;9.13;;
45326;SDS011;31062;49.678;24.560;2023-08-17T03:26:16;10.95;;;9.27;;
45326;SDS011;31062;49.678;24.560;2023-08-17T03:29:01;14.68;;;10.40;;
45326;SDS011;31062;49.678;24.560;2023-08-17T03:31:46;15.07;;;9.15;;
45326;SDS011;31062;49.678;24.560;2023-08-17T03:34:32;18.10;;;10.15;;
45326;SDS011;31062;49.678;24.560;2023-08-17T03:37:19;22.60;;;9.60;;
45326;SDS011;31062;49.678;24.560;2023-08-17T03:40:04;16.95;;;10.25;;
45326;SDS011;31062;49.678;24.560;2023-08-17T03:42:53;15.30;;;11.02;;
45326;SDS011;31062;49.678;24.560;2023-08-17T03:45:38;21.85;;;10.52;;
45326;SDS011;31062;49.678;24.560;2023-08-17T03:48:26;18.58;;;10.38;;
45326;SDS011;31062;49.678;24.560;2023-08-17T03:51:11;13.95;;;9.85;;
45326;SDS011;31062;49.678;24.560;2023-08-17T03:53:57;11.95;;;8.77;;
45326;SDS011;31062;49.678;24.560;2023-08-17T03:56:42;19.17;;;9.98;;
45326;SDS011;31062;49.678;24.560;2023-08-17T03:59:29;11.30;;;9.18;;
45326;SDS011;31062;49.678;24.560;2023-08-17T04:02:16;12.98;;;9.90;;
45326;SDS011;31062;49.678;24.560;2023-08-17T04:05:02;11.65;;;9.20;;
45326;SDS011;31062;49.678;24.560;2023-08-17T04:07:48;12.85;;;9.65;;
45326;SDS011;31062;49.678;24.560;2023-08-17T04:10:34;11.77;;;10.27;;
45326;SDS011;31062;49.678;24.560;2023-08-17T04:13:20;12.48;;;9.15;;
45326;SDS011;31062;49.678;24.560;2023-08-17T04:16:05;13.57;;;8.35;;
45326;SDS011;31062;49.678;24.560;2023-08-17T04:18:51;11.57;;;9.23;;
45326;SDS011;31062;49.678;24.560;2023-08-17T04:21:36;10.80;;;8.30;;
45326;SDS011;31062;49.678;24.560;2023-08-17T04:24:22;13.98;;;9.25;;
45326;SDS011;31062;49.678;24.560;2023-08-17T04:27:07;17.73;;;9.30;;
45326;SDS011;31062;49.678;24.560;2023-08-17T04:29:53;17.85;;;10.15;;
45326;SDS011;31062;49.678;24.560;2023-08-17T04:32:39;16.23;;;8.30;;
45326;SDS011;31062;49.678;24.560;2023-08-17T04:35:24;15.60;;;8.25;;
45326;SDS011;31062;49.678;24.560;2023-08-17T04:38:11;13.85;;;10.15;;
45326;SDS011;31062;49.678;24.560;2023-08-17T04:40:57;16.55;;;12.00;;
45326;SDS011;31062;49.678;24.560;2023-08-17T04:43:43;13.90;;;8.85;;
45326;SDS011;31062;49.678;24.560;2023-08-17T04:46:31;13.18;;;9.52;;
45326;SDS011;31062;49.678;24.560;2023-08-17T04:49:17;9.38;;;8.48;;
45326;SDS011;31062;49.678;24.560;2023-08-17T04:52:04;11.68;;;9.43;;
45326;SDS011;31062;49.678;24.560;2023-08-17T04:54:51;12.45;;;7.93;;
45326;SDS011;31062;49.678;24.560;2023-08-17T04:57:36;9.68;;;6.90;;
45326;SDS011;31062;49.678;24.560;2023-08-17T05:00:23;13.32;;;7.40;;
45326;SDS011;31062;49.678;24.560;2023-08-17T05:03:14;13.05;;;7.70;;
45326;SDS011;31062;49.678;24.560;2023-08-17T05:06:18;11.65;;;7.97;;
45326;SDS011;31062;49.678;24.560;2023-08-17T05:09:04;8.95;;;7.25;;
45326;SDS011;31062;49.678;24.560;2023-08-17T05:11:53;9.10;;;6.97;;
45326;SDS011;31062;49.678;24.560;2023-08-17T05:14:39;13.32;;;7.22;;
45326;SDS011;31062;49.678;24.560;2023-08-17T05:17:25;11.07;;;7.13;;
45326;SDS011;31062;49.678;24.560;2023-08-17T05:20:11;8.50;;;7.05;;
45326;SDS011;31062;49.678;24.560;2023-08-17T05:22:58;9.30;;;7.97;;
45326;SDS011;31062;49.678;24.560;2023-08-17T05:25:47;9.32;;;8.02;;
45326;SDS011;31062;49.678;24.560;2023-08-17T05:28:34;9.23;;;7.32;;
45326;SDS011;31062;49.678;24.560;2023-08-17T05:31:21;12.30;;;8.50;;
45326;SDS011;31062;49.678;24.560;2023-08-17T05:34:08;15.82;;;9.07;;
45326;SDS011;31062;49.678;24.560;2023-08-17T05:36:55;13.07;;;8.52;;
45326;SDS011;31062;49.678;24.560;2023-08-17T05:39:42;15.93;;;8.63;;
45326;SDS011;31062;49.678;24.560;2023-08-17T05:42:28;17.95;;;10.15;;
45326;SDS011;31062;49.678;24.560;2023-08-17T05:45:14;17.70;;;9.60;;
45326;SDS011;31062;49.678;24.560;2023-08-17T05:48:00;15.55;;;9.93;;
45326;SDS011;31062;49.678;24.560;2023-08-17T05:50:46;18.60;;;9.15;;
45326;SDS011;31062;49.678;24.560;2023-08-17T05:53:32;14.05;;;9.07;;
45326;SDS011;31062;49.678;24.560;2023-08-17T05:56:19;15.80;;;9.23;;
45326;SDS011;31062;49.678;24.560;2023-08-17T05:59:04;13.20;;;7.85;;
45326;SDS011;31062;49.678;24.560;2023-08-17T06:01:50;14.48;;;8.35;;
45326;SDS011;31062;49.678;24.560;2023-08-17T06:04:35;9.63;;;7.65;;
45326;SDS011;31062;49.678;24.560;2023-08-17T06:07:21;11.38;;;7.22;;
45326;SDS011;31062;49.678;24.560;2023-08-17T06:10:07;13.93;;;7.35;;
45326;SDS011;31062;49.678;24.560;2023-08-17T06:12:53;10.43;;;7.95;;
45326;SDS011;31062;49.678;24.560;2023-08-17T06:15:41;13.68;;;7.50;;
45326;SDS011;31062;49.678;24.560;2023-08-17T06:18:27;12.77;;;7.35;;
45326;SDS011;31062;49.678;24.560;2023-08-17T06:21:13;8.90;;;6.57;;
45326;SDS011;31062;49.678;24.560;2023-08-17T06:23:59;7.95;;;7.10;;
45326;SDS011;31062;49.678;24.560;2023-08-17T06:26:45;15.15;;;8.82;;
45326;SDS011;31062;49.678;24.560;2023-08-17T06:29:32;12.55;;;6.88;;
45326;SDS011;31062;49.678;24.560;2023-08-17T06:32:19;11.50;;;6.70;;
45326;SDS011;31062;49.678;24.560;2023-08-17T06:35:08;12.13;;;7.25;;
45326;SDS011;31062;49.678;24.560;2023-08-17T06:37:55;13.82;;;7.13;;
45326;SDS011;31062;49.678;24.560;2023-08-17T06:40:42;14.35;;;7.65;;
45326;SDS011;31062;49.678;24.560;2023-08-17T06:43:28;8.80;;;6.82;;
45326;SDS011;31062;49.678;24.560;2023-08-17T06:46:16;10.90;;;6.50;;
45326;SDS011;31062;49.678;24.560;2023-08-17T06:49:05;12.07;;;6.63;;
45326;SDS011;31062;49.678;24.560;2023-08-17T06:51:51;10.50;;;6.13;;
45326;SDS011;31062;49.678;24.560;2023-08-17T06:54:37;10.90;;;7.15;;
45326;SDS011;31062;49.678;24.560;2023-08-17T06:57:25;12.65;;;6.75;;
45326;SDS011;31062;49.678;24.560;2023-08-17T07:00:11;11.15;;;6.72;;
45326;SDS011;31062;49.678;24.560;2023-08-17T07:02:57;10.63;;;7.22;;
45326;SDS011;31062;49.678;24.560;2023-08-17T07:05:45;10.70;;;6.53;;
45326;SDS011;31062;49.678;24.560;2023-08-17T07:08:31;10.48;;;6.90;;
45326;SDS011;31062;49.678;24.560;2023-08-17T07:11:18;15.65;;;7.18;;
45326;SDS011;31062;49.678;24.560;2023-08-17T07:14:04;14.25;;;7.28;;
45326;SDS011;31062;49.678;24.560;2023-08-17T07:16:51;11.55;;;7.93;;
45326;SDS011;31062;49.678;24.560;2023-08-17T07:19:36;15.63;;;8.30;;
45326;SDS011;31062;49.678;24.560;2023-08-17T07:22:42;16.48;;;7.90;;
45326;SDS011;31062;49.678;24.560;2023-08-17T07:25:27;11.07;;;7.75;;
45326;SDS011;31062;49.678;24.560;2023-08-17T07:28:13;11.65;;;7.47;;
45326;SDS011;31062;49.678;24.560;2023-08-17T07:31:00;12.18;;;7.35;;
45326;SDS011;31062;49.678;24.560;2023-08-17T07:33:46;16.85;;;7.38;;
45326;SDS011;31062;49.678;24.560;2023-08-17T07:36:32;9.23;;;6.78;;
45326;SDS011;31062;49.678;24.560;2023-08-17T07:39:18;14.38;;;7.35;;
45326;SDS011;31062;49.678;24.560;2023-08-17T07:42:03;10.52;;;7.38;;
45326;SDS011;31062;49.678;24.560;2023-08-17T07:44:49;11.95;;;7.30;;
45326;SDS011;31062;49.678;24.560;2023-08-17T07:47:34;12.50;;;6.57;;
45326;SDS011;31062;49.678;24.560;2023-08-17T07:50:23;12.45;;;7.07;;
45326;SDS011;31062;49.678;24.560;2023-08-17T07:53:09;17.45;;;7.45;;
45326;SDS011;31062;49.678;24.560;2023-08-17T07:55:54;13.15;;;7.18;;
45326;SDS011;31062;49.678;24.560;2023-08-17T07:58:40;14.25;;;7.07;;
45326;SDS011;31062;49.678;24.560;2023-08-17T08:01:25;20.98;;;14.10;;
45326;SDS011;31062;49.678;24.560;2023-08-17T08:04:10;10.43;;;7.20;;
45326;SDS011;31062;49.678;24.560;2023-08-17T08:06:56;16.63;;;8.50;;
45326;SDS011;31062;49.678;24.560;2023-08-17T08:09:42;11.45;;;6.97;;
45326;SDS011;31062;49.678;24.560;2023-08-17T08:12:27;11.60;;;6.82;;
45326;SDS011;31062;49.678;24.560;2023-08-17T08:15:13;15.68;;;7.88;;
45326;SDS011;31062;49.678;24.560;2023-08-17T08:17:58;10.85;;;7.13;;
45326;SDS011;31062;49.678;24.560;2023-08-17T08:20:44;17.92;;;7.78;;
45326;SDS011;31062;49.678;24.560;2023-08-17T08:23:30;8.98;;;6.57;;
45326;SDS011;31062;49.678;24.560;2023-08-17T08:26:15;8.43;;;6.47;;
45326;SDS011;31062;49.678;24.560;2023-08-17T08:29:00;7.30;;;6.60;;
45326;SDS011;31062;49.678;24.560;2023-08-17T08:31:46;14.65;;;6.63;;
45326;SDS011;31062;49.678;24.560;2023-08-17T08:34:31;12.65;;;6.32;;
45326;SDS011;31062;49.678;24.560;2023-08-17T08:37:17;18.38;;;7.38;;
45326;SDS011;31062;49.678;24.560;2023-08-17T08:40:02;17.33;;;6.28;;
45326;SDS011;31062;49.678;24.560;2023-08-17T08:42:48;15.18;;;6.07;;
45326;SDS011;31062;49.678;24.560;2023-08-17T08:45:35;11.38;;;6.10;;
45326;SDS011;31062;49.678;24.560;2023-08-17T08:48:23;11.52;;;6.55;;
45326;SDS011;31062;49.678;24.560;2023-08-17T08:51:11;13.82;;;6.00;;
45326;SDS011;31062;49.678;24.560;2023-08-17T08:54:01;14.20;;;6.60;;
45326;SDS011;31062;49.678;24.560;2023-08-17T08:56:54;7.38;;;6.15;;
45326;SDS011;31062;49.678;24.560;2023-08-17T08:59:45;10.70;;;6.68;;
45326;SDS011;31062;49.678;24.560;2023-08-17T09:02:32;13.30;;;6.65;;
45326;SDS011;31062;49.678;24.560;2023-08-17T09:05:19;7.03;;;5.88;;
45326;SDS011;31062;49.678;24.560;2023-08-17T09:08:08;8.23;;;6.80;;
45326;SDS011;31062;49.678;24.560;2023-08-17T09:11:01;7.28;;;5.95;;
45326;SDS011;31062;49.678;24.560;2023-08-17T09:13:48;9.40;;;5.70;;
45326;SDS011;31062;49.678;24.560;2023-08-17T09:16:38;15.05;;;6.55;;
45326;SDS011;31062;49.678;24.560;2023-08-17T09:19:24;14.60;;;5.45;;
45326;SDS011;31062;49.678;24.560;2023-08-17T09:22:11;11.40;;;6.00;;
45326;SDS011;31062;49.678;24.560;2023-08-17T09:24:56;10.25;;;5.60;;
45326;SDS011;31062;49.678;24.560;2023-08-17T09:27:48;13.05;;;6.25;;
45326;SDS011;31062;49.678;24.560;2023-08-17T09:30:33;10.07;;;5.57;;
45326;SDS011;31062;49.678;24.560;2023-08-17T09:33:23;12.65;;;6.25;;
45326;SDS011;31062;49.678;24.560;2023-08-17T09:36:10;9.73;;;5.63;;
45326;SDS011;31062;49.678;24.560;2023-08-17T09:38:58;8.85;;;6.38;;
45326;SDS011;31062;49.678;24.560;2023-08-17T09:41:45;15.48;;;6.32;;
45326;SDS011;31062;49.678;24.560;2023-08-17T09:44:33;9.02;;;6.05;;
45326;SDS011;31062;49.678;24.560;2023-08-17T09:47:19;11.38;;;6.00;;
45326;SDS011;31062;49.678;24.560;2023-08-17T09:50:08;12.60;;;5.75;;
45326;SDS011;31062;49.678;24.560;2023-08-17T09:52:54;7.35;;;5.38;;
45326;SDS011;31062;49.678;24.560;2023-08-17T09:55:41;5.70;;;5.00;;
45326;SDS011;31062;49.678;24.560;2023-08-17T09:58:28;8.20;;;5.22;;
45326;SDS011;31062;49.678;24.560;2023-08-17T10:01:19;7.60;;;4.75;;
45326;SDS011;31062;49.678;24.560;2023-08-17T10:04:07;10.25;;;4.65;;
45326;SDS011;31062;49.678;24.560;2023-08-17T10:06:58;5.10;;;4.60;;
45326;SDS011;31062;49.678;24.560;2023-08-17T10:10:09;7.18;;;4.80;;
45326;SDS011;31062;49.678;24.560;2023-08-17T10:13:00;6.50;;;4.80;;
45326;SDS011;31062;49.678;24.560;2023-08-17T10:22:16;5.20;;;4.70;;
45326;SDS011;31062;49.678;24.560;2023-08-17T10:25:05;13.63;;;4.93;;
45326;SDS011;31062;49.678;24.560;2023-08-17T10:27:54;9.65;;;5.20;;
45326;SDS011;31062;49.678;24.560;2023-08-17T10:30:44;6.78;;;4.85;;
45326;SDS011;31062;49.678;24.560;2023-08-17T10:33:31;5.43;;;4.78;;
45326;SDS011;31062;49.678;24.560;2023-08-17T10:36:17;9.35;;;4.72;;
45326;SDS011;31062;49.678;24.560;2023-08-17T10:39:28;11.40;;;4.40;;
45326;SDS011;31062;49.678;24.560;2023-08-17T10:42:15;8.00;;;4.35;;
45326;SDS011;31062;49.678;24.560;2023-08-17T10:51:00;6.50;;;3.80;;
45326;SDS011;31062;49.678;24.560;2023-08-17T10:53:48;8.80;;;4.35;;
45326;SDS011;31062;49.678;24.560;2023-08-17T10:56:39;5.07;;;4.57;;
45326;SDS011;31062;49.678;24.560;2023-08-17T10:59:26;5.85;;;4.15;;
45326;SDS011;31062;49.678;24.560;2023-08-17T11:02:12;8.40;;;5.03;;
45326;SDS011;31062;49.678;24.560;2023-08-17T11:04:58;8.70;;;4.15;;
45326;SDS011;31062;49.678;24.560;2023-08-17T11:07:45;5.15;;;4.40;;
45326;SDS011;31062;49.678;24.560;2023-08-17T11:10:31;15.45;;;4.50;;
45326;SDS011;31062;49.678;24.560;2023-08-17T11:13:17;7.45;;;4.68;;
45326;SDS011;31062;49.678;24.560;2023-08-17T11:16:04;5.35;;;4.60;;
45326;SDS011;31062;49.678;24.560;2023-08-17T11:18:51;7.63;;;4.55;;
45326;SDS011;31062;49.678;24.560;2023-08-17T11:21:37;15.02;;;4.68;;
45326;SDS011;31062;49.678;24.560;2023-08-17T11:24:23;10.88;;;4.60;;
45326;SDS011;31062;49.678;24.560;2023-08-17T11:27:13;8.32;;;5.18;;
45326;SDS011;31062;49.678;24.560;2023-08-17T11:30:00;6.03;;;4.85;;
45326;SDS011;31062;49.678;24.560;2023-08-17T11:32:49;5.60;;;4.75;;
45326;SDS011;31062;49.678;24.560;2023-08-17T11:35:38;9.25;;;4.38;;
45326;SDS011;31062;49.678;24.560;2023-08-17T11:38:26;5.75;;;4.20;;
45326;SDS011;31062;49.678;24.560;2023-08-17T11:41:15;9.05;;;3.78;;
45326;SDS011;31062;49.678;24.560;2023-08-17T11:44:04;5.55;;;3.25;;
45326;SDS011;31062;49.678;24.560;2023-08-17T11:46:50;8.70;;;4.35;;
45326;SDS011;31062;49.678;24.560;2023-08-17T11:49:36;8.82;;;4.50;;
45326;SDS011;31062;49.678;24.560;2023-08-17T11:52:25;15.43;;;5.25;;
45326;SDS011;31062;49.678;24.560;2023-08-17T11:55:13;11.95;;;5.35;;
45326;SDS011;31062;49.678;24.560;2023-08-17T11:58:03;16.80;;;5.15;;
45326;SDS011;31062;49.678;24.560;2023-08-17T12:00:54;11.73;;;5.57;;
45326;SDS011;31062;49.678;24.560;2023-08-17T12:03:44;18.25;;;6.43;;
45326;SDS011;31062;49.678;24.560;2023-08-17T12:06:45;11.20;;;5.90;;
45326;SDS011;31062;49.678;24.560;2023-08-17T12:09:33;11.52;;;7.13;;
45326;SDS011;31062;49.678;24.560;2023-08-17T12:12:21;22.13;;;6.85;;
45326;SDS011;31062;49.678;24.560;2023-08-17T12:15:09;9.80;;;5.90;;
45326;SDS011;31062;49.678;24.560;2023-08-17T12:18:19;10.68;;;5.93;;
45326;SDS011;31062;49.678;24.560;2023-08-17T12:21:07;9.20;;;5.78;;
45326;SDS011;31062;49.678;24.560;2023-08-17T12:23:53;11.52;;;6.10;;
45326;SDS011;31062;49.678;24.560;2023-08-17T12:26:40;10.10;;;6.05;;
45326;SDS011;31062;49.678;24.560;2023-08-17T12:29:27;7.00;;;5.65;;
45326;SDS011;31062;49.678;24.560;2023-08-17T12:32:14;7.43;;;5.85;;
45326;SDS011;31062;49.678;24.560;2023-08-17T12:35:03;7.88;;;5.40;;
45326;SDS011;31062;49.678;24.560;2023-08-17T12:37:49;9.32;;;5.85;;
45326;SDS011;31062;49.678;24.560;2023-08-17T12:40:36;10.55;;;5.70;;
45326;SDS011;31062;49.678;24.560;2023-08-17T12:43:21;10.95;;;6.18;;
45326;SDS011;31062;49.678;24.560;2023-08-17T12:46:08;10.60;;;5.93;;
45326;SDS011;31062;49.678;24.560;2023-08-17T12:48:54;9.05;;;5.60;;
45326;SDS011;31062;49.678;24.560;2023-08-17T12:51:39;8.77;;;5.25;;
45326;SDS011;31062;49.678;24.560;2023-08-17T12:54:30;12.63;;;5.90;;
45326;SDS011;31062;49.678;24.560;2023-08-17T12:57:15;9.95;;;5.53;;
45326;SDS011;31062;49.678;24.560;2023-08-17T13:00:01;10.18;;;3.83;;
45326;SDS011;31062;49.678;24.560;2023-08-17T13:02:46;8.48;;;3.75;;
45326;SDS011;31062;49.678;24.560;2023-08-17T13:05:34;4.55;;;3.85;;
45326;SDS011;31062;49.678;24.560;2023-08-17T13:08:20;10.65;;;4.65;;
45326;SDS011;31062;49.678;24.560;2023-08-17T13:11:06;5.70;;;4.47;;
45326;SDS011;31062;49.678;24.560;2023-08-17T13:13:51;10.18;;;5.80;;
45326;SDS011;31062;49.678;24.560;2023-08-17T13:16:37;10.23;;;5.05;;
45326;SDS011;31062;49.678;24.560;2023-08-17T13:19:23;13.85;;;6.32;;
45326;SDS011;31062;49.678;24.560;2023-08-17T13:22:09;7.25;;;5.30;;
45326;SDS011;31062;49.678;24.560;2023-08-17T13:24:55;9.68;;;6.18;;
45326;SDS011;31062;49.678;24.560;2023-08-17T13:27:41;12.15;;;6.20;;
45326;SDS011;31062;49.678;24.560;2023-08-17T13:30:27;12.60;;;5.88;;
45326;SDS011;31062;49.678;24.560;2023-08-17T13:33:12;11.43;;;6.25;;
45326;SDS011;31062;49.678;24.560;2023-08-17T13:35:58;9.70;;;6.13;;
45326;SDS011;31062;49.678;24.560;2023-08-17T13:38:44;6.75;;;6.10;;
45326;SDS011;31062;49.678;24.560;2023-08-17T13:41:31;8.25;;;6.20;;
45326;SDS011;31062;49.678;24.560;2023-08-17T13:44:17;8.60;;;6.05;;
45326;SDS011;31062;49.678;24.560;2023-08-17T13:47:02;9.38;;;6.22;;
45326;SDS011;31062;49.678;24.560;2023-08-17T13:49:48;7.53;;;5.68;;
45326;SDS011;31062;49.678;24.560;2023-08-17T13:52:34;7.90;;;6.25;;
45326;SDS011;31062;49.678;24.560;2023-08-17T13:55:19;11.35;;;6.50;;
45326;SDS011;31062;49.678;24.560;2023-08-17T13:58:05;9.88;;;6.40;;
45326;SDS011;31062;49.678;24.560;2023-08-17T14:00:50;6.55;;;5.78;;
45326;SDS011;31062;49.678;24.560;2023-08-17T14:03:37;9.43;;;6.13;;
45326;SDS011;31062;49.678;24.560;2023-08-17T14:06:23;8.00;;;6.25;;
45326;SDS011;31062;49.678;24.560;2023-08-17T14:09:09;6.80;;;6.10;;
45326;SDS011;31062;49.678;24.560;2023-08-17T14:11:54;12.68;;;6.03;;
45326;SDS011;31062;49.678;24.560;2023-08-17T14:14:40;10.13;;;6.38;;
45326;SDS011;31062;49.678;24.560;2023-08-17T14:17:26;8.95;;;5.97;;
45326;SDS011;31062;49.678;24.560;2023-08-17T14:20:11;12.93;;;5.88;;
45326;SDS011;31062;49.678;24.560;2023-08-17T14:22:58;8.00;;;6.47;;
45326;SDS011;31062;49.678;24.560;2023-08-17T14:25:44;9.25;;;6.80;;
45326;SDS011;31062;49.678;24.560;2023-08-17T14:28:29;8.15;;;5.93;;
45326;SDS011;31062;49.678;24.560;2023-08-17T14:31:15;10.38;;;6.57;;
45326;SDS011;31062;49.678;24.560;2023-08-17T14:34:03;8.30;;;5.88;;
45326;SDS011;31062;49.678;24.560;2023-08-17T14:36:51;9.88;;;5.30;;
45326;SDS011;31062;49.678;24.560;2023-08-17T14:39:36;6.95;;;6.28;;
45326;SDS011;31062;49.678;24.560;2023-08-17T14:42:22;7.80;;;7.07;;
45326;SDS011;31062;49.678;24.560;2023-08-17T14:45:10;8.32;;;7.10;;
45326;SDS011;31062;49.678;24.560;2023-08-17T14:47:56;7.72;;;6.93;;
45326;SDS011;31062;49.678;24.560;2023-08-17T14:50:43;7.18;;;6.53;;
45326;SDS011;31062;49.678;24.560;2023-08-17T14:53:29;7.65;;;6.43;;
45326;SDS011;31062;49.678;24.560;2023-08-17T14:56:15;6.32;;;5.72;;
45326;SDS011;31062;49.678;24.560;2023-08-17T14:59:02;9.38;;;6.63;;
45326;SDS011;31062;49.678;24.560;2023-08-17T15:01:53;7.43;;;6.53;;
45326;SDS011;31062;49.678;24.560;2023-08-17T15:04:41;11.00;;;6.85;;
45326;SDS011;31062;49.678;24.560;2023-08-17T15:07:26;16.13;;;7.57;;
45326;SDS011;31062;49.678;24.560;2023-08-17T15:10:13;7.30;;;5.70;;
45326;SDS011;31062;49.678;24.560;2023-08-17T15:12:58;10.68;;;6.38;;
45326;SDS011;31062;49.678;24.560;2023-08-17T15:15:44;6.93;;;6.30;;
45326;SDS011;31062;49.678;24.560;2023-08-17T15:18:30;8.50;;;6.50;;
45326;SDS011;31062;49.678;24.560;2023-08-17T15:21:16;9.75;;;6.25;;
45326;SDS011;31062;49.678;24.560;2023-08-17T15:24:01;7.28;;;6.68;;
45326;SDS011;31062;49.678;24.560;2023-08-17T15:26:47;8.25;;;6.22;;
45326;SDS011;31062;49.678;24.560;2023-08-17T15:29:33;7.70;;;6.30;;
45326;SDS011;31062;49.678;24.560;2023-08-17T15:32:19;6.80;;;6.15;;
45326;SDS011;31062;49.678;24.560;2023-08-17T15:35:05;7.65;;;6.20;;
45326;SDS011;31062;49.678;24.560;2023-08-17T15:37:52;11.10;;;7.15;;
45326;SDS011;31062;49.678;24.560;2023-08-17T15:40:37;8.43;;;6.60;;
45326;SDS011;31062;49.678;24.560;2023-08-17T15:43:24;8.07;;;6.93;;
45326;SDS011;31062;49.678;24.560;2023-08-17T15:46:10;11.82;;;6.80;;
45326;SDS011;31062;49.678;24.560;2023-08-17T15:48:56;9.10;;;7.25;;
45326;SDS011;31062;49.678;24.560;2023-08-17T15:51:41;12.25;;;7.28;;
45326;SDS011;31062;49.678;24.560;2023-08-17T15:54:26;7.88;;;6.32;;
45326;SDS011;31062;49.678;24.560;2023-08-17T15:57:20;9.73;;;6.25;;
45326;SDS011;31062;49.678;24.560;2023-08-17T16:00:06;6.82;;;6.13;;
45326;SDS011;31062;49.678;24.560;2023-08-17T16:02:52;9.90;;;6.72;;
45326;SDS011;31062;49.678;24.560;2023-08-17T16:05:38;6.82;;;6.22;;
45326;SDS011;31062;49.678;24.560;2023-08-17T16:08:24;7.00;;;6.38;;
45326;SDS011;31062;49.678;24.560;2023-08-17T16:14:11;7.78;;;6.20;;
45326;SDS011;31062;49.678;24.560;2023-08-17T16:16:57;9.43;;;7.32;;
45326;SDS011;31062;49.678;24.560;2023-08-17T16:19:44;8.18;;;7.38;;
45326;SDS011;31062;49.678;24.560;2023-08-17T16:22:29;7.93;;;7.13;;
45326;SDS011;31062;49.678;24.560;2023-08-17T16:25:15;8.40;;;6.70;;
45326;SDS011;31062;49.678;24.560;2023-08-17T16:28:03;11.77;;;6.72;;
45326;SDS011;31062;49.678;24.560;2023-08-17T16:30:51;10.05;;;7.22;;
45326;SDS011;31062;49.678;24.560;2023-08-17T16:33:37;10.02;;;7.20;;
45326;SDS011;31062;49.678;24.560;2023-08-17T16:36:24;8.20;;;7.07;;